Redhead, Trinidad And Tobago

6:16 PM AST on August 18, 2017 (GMT -0400)
Scarborough | | Change Station

Elev 36 ft 11.15 °N, 60.85 °W | Updated 16 minutes ago

Partly Cloudy
Partly Cloudy
84 °F
Feels Like 92 °F
N
6
Wind Variable Wind from East

Today
High -- | Low -- °F
--% Chance of Precip.
Yesterday
High -- | Low -- °F
Precip. -- in
Pressure 29.80 in
Visibility 6.2 miles
Clouds Mostly Cloudy 1400 ft
Heat Index 92 °F
Dew Point 75 °F
Humidity 74%
Rainfall 0.00 in
Snow Depth Not available.
5:54 AM 6:20 PM
Waning Crescent, 11% visible
METAR TTCP 182200Z 09005KT 9999 -SHRA BKN014TCU 29/24 Q1009 NOSIG RMK TCU SE
Pressure 29.80 in
Visibility 6.2 miles
Clouds Mostly Cloudy 1400 ft
Heat Index 92 °F
Dew Point 75 °F
Humidity 74%
Rainfall 0.00 in
Snow Depth Not available.
5:54 AM 6:20 PM
Waning Crescent, 11% visible
METAR TTCP 182200Z 09005KT 9999 -SHRA BKN014TCU 29/24 Q1009 NOSIG RMK TCU SE

Get Severe Weather Alerts

Thanks for signing up!

Be on the lookout for a verification email in your inbox.

You'll start receiving the daily forecast at 6 AM.

×

10-Day Weather Forecast

No radar image for this location.
×

Almanac

Astronomy

Aug. 18, 2017 Rise Set
Actual Time
Civil Twilight
Nautical Twilight
Astronomical Twilight
Moon
Length of Visible Light
Length of Day
Tomorrow will be .
, % of the Moon is Illuminated

Today's Extremes

Country Highs Country Lows

Community

WunderPhotos

Category 6

Welcome to Category 6. This is the collective home for Weather Underground's featured writeups by Dr. Jeff Masters (right), Bob Henson (left), Chris Burt, and other regular contributors.

Nearby

Air Quality

  Air Quality AQ Index Pollutant
Not available.

Snow Depth

Station Depth Elevation

Earthquake Activity

City Distance Mag. Time & Date
Minimum magnitude displayed is 2.5.

Coastal Water Temperatures

Place Temperature

Stations

Nearby Weather Stations

Station Location Temp. Windchill Dew Point Humidity Wind Precip. Elev Updated Type